Time;durP1;ratioP1;P1;durP2;ratioP2;P2;SDS_P1;SDS_P2;PMS_P1;PMS_P2;Temp;Humidity;BMP_temperature;BMP_pressure;BME280_temperature;BME280_humidity;BME280_pressure;Samples;Min_cycle;Max_cycle;Signal;HPM_P1;HPM_P2
2022/10/13 00:01:10;;;;;;;1.00;1.00;;;;;;;15.82;100.00;96049.69;5134470;27;20422;-55
2022/10/13 00:03:40;;;;;;;2.67;1.27;;;;;;;15.59;100.00;96053.94;5132639;27;20437;-56
2022/10/13 00:06:10;;;;;;;0.70;0.70;;;;;;;15.50;100.00;96044.16;5134343;27;20445;-56
2022/10/13 00:08:41;;;;;;;1.27;1.17;;;;;;;15.63;100.00;96057.66;5134294;27;20432;-56
2022/10/13 00:11:12;;;;;;;0.53;0.50;;;;;;;15.68;100.00;96054.94;5133922;27;20432;-55
2022/10/13 00:13:40;;;;;;;0.80;0.80;;;;;;;15.69;100.00;96063.72;5133918;27;20429;-55
2022/10/13 00:16:09;;;;;;;0.50;0.50;;;;;;;15.71;100.00;96050.88;5134251;27;20465;-55
2022/10/13 00:18:38;;;;;;;1.03;0.87;;;;;;;15.28;100.00;96053.38;5134263;27;20524;-55
2022/10/13 00:21:08;;;;;;;1.63;0.50;;;;;;;15.51;100.00;96045.75;5133962;27;20962;-55
2022/10/13 00:23:36;;;;;;;1.53;0.70;;;;;;;15.61;100.00;96049.09;5133933;27;20430;-55
2022/10/13 00:26:09;;;;;;;1.37;1.27;;;;;;;15.47;100.00;96047.38;5133700;27;20438;-55
2022/10/13 00:28:38;;;;;;;0.80;0.80;;;;;;;15.50;100.00;96047.63;5133981;27;20437;-55
2022/10/13 00:31:15;;;;;;;0.70;0.63;;;;;;;15.37;100.00;96036.75;5134104;27;20431;-55
2022/10/13 00:33:44;;;;;;;0.70;0.60;;;;;;;15.22;100.00;96030.47;5133862;27;20445;-55
2022/10/13 00:36:12;;;;;;;1.17;0.93;;;;;;;14.80;100.00;96045.50;5133544;27;20464;-55
2022/10/13 00:38:40;;;;;;;1.20;1.10;;;;;;;14.53;100.00;96045.94;5133665;27;20430;-56
2022/10/13 00:41:11;;;;;;;1.10;1.00;;;;;;;13.79;100.00;95947.38;5133697;27;20426;-55
2022/10/13 00:43:52;;;;;;;1.33;1.23;;;;;;;14.45;100.00;96030.50;5132894;27;20933;-55
2022/10/13 00:46:23;;;;;;;0.57;0.57;;;;;;;14.31;100.00;96034.84;5132132;27;20421;-54
2022/10/13 00:48:52;;;;;;;0.57;0.40;;;;;;;14.24;100.00;96039.66;5132526;27;20472;-55
2022/10/13 00:51:24;;;;;;;0.50;0.40;;;;;;;13.91;100.00;96036.59;5132720;27;20514;-55
2022/10/13 00:53:55;;;;;;;0.83;0.83;;;;;;;13.53;100.00;96023.13;5133238;27;20425;-55
2022/10/13 00:56:26;;;;;;;0.87;0.87;;;;;;;13.38;100.00;96031.16;5133587;27;20477;-55
2022/10/13 00:58:56;;;;;;;4.40;1.03;;;;;;;13.08;100.00;95958.25;5133118;27;20437;-55
2022/10/13 01:01:24;;;;;;;0.97;0.87;;;;;;;13.24;100.00;96018.38;5133103;27;20437;-55
2022/10/13 01:03:52;;;;;;;0.50;0.50;;;;;;;13.14;100.00;96041.56;5133399;27;20835;-55
2022/10/13 01:06:21;;;;;;;0.60;0.60;;;;;;;12.88;100.00;96027.41;5133311;27;20449;-55
2022/10/13 01:08:51;;;;;;;1.17;1.07;;;;;;;13.87;100.00;96040.06;5133133;27;20838;-55
2022/10/13 01:11:42;;;;;;;0.97;0.97;;;;;;;14.39;100.00;96047.63;5132902;27;20429;-55
2022/10/13 01:14:20;;;;;;;0.57;0.57;;;;;;;14.36;100.00;96037.50;5132127;27;20824;-55
2022/10/13 01:17:00;;;;;;;1.40;1.13;;;;;;;14.57;100.00;96034.41;5132635;27;20426;-55
2022/10/13 01:19:52;;;;;;;0.40;0.30;;;;;;;14.56;100.00;96032.03;5132920;27;20443;-54
2022/10/13 01:22:38;;;;;;;1.73;0.57;;;;;;;14.68;100.00;96035.16;5131680;27;20429;-54
2022/10/13 01:25:18;;;;;;;0.50;0.30;;;;;;;14.49;100.00;96042.22;5132806;27;20473;-54
2022/10/13 01:28:03;;;;;;;0.63;0.60;;;;;;;14.15;100.00;96036.75;5132571;27;20440;-54
2022/10/13 01:30:37;;;;;;;1.40;1.30;;;;;;;14.44;100.00;96042.25;5132848;27;20953;-54
2022/10/13 01:33:25;;;;;;;0.50;0.40;;;;;;;14.56;100.00;96035.50;5132663;27;20443;-55
2022/10/13 01:36:11;;;;;;;2.93;1.90;;;;;;;14.40;100.00;96022.53;5131977;27;20465;-54
2022/10/13 01:38:47;;;;;;;6.37;1.20;;;;;;;14.39;100.00;96023.63;5132874;27;20864;-54
2022/10/13 01:41:23;;;;;;;0.40;0.20;;;;;;;14.00;100.00;96034.97;5132925;27;20519;-55
2022/10/13 01:43:57;;;;;;;0.70;0.50;;;;;;;14.35;100.00;96036.69;5131538;27;20426;-55
2022/10/13 01:46:30;;;;;;;0.80;0.40;;;;;;;14.57;100.00;96044.31;5132534;27;20437;-55
2022/10/13 01:49:01;;;;;;;5.70;0.80;;;;;;;14.77;100.00;96030.84;5132876;27;20429;-55
2022/10/13 01:51:32;;;;;;;0.50;0.40;;;;;;;14.75;100.00;96024.19;5132440;27;20430;-55
2022/10/13 01:54:01;;;;;;;0.73;0.73;;;;;;;14.86;100.00;96023.81;5132763;27;20434;-55
2022/10/13 01:56:29;;;;;;;0.60;0.40;;;;;;;14.81;100.00;96029.22;5132757;27;20481;-55
2022/10/13 01:59:01;;;;;;;0.50;0.40;;;;;;;14.90;100.00;96024.84;5132680;27;20444;-54
2022/10/13 02:01:45;;;;;;;0.70;0.70;;;;;;;14.93;100.00;96026.97;5132325;27;20432;-54
2022/10/13 02:04:26;;;;;;;0.60;0.60;;;;;;;15.04;100.00;96022.34;5132734;27;20429;-54
2022/10/13 02:07:01;;;;;;;0.40;0.40;;;;;;;14.88;100.00;96019.00;5132543;27;20444;-54
2022/10/13 02:09:39;;;;;;;0.93;0.80;;;;;;;14.76;100.00;96010.56;5132665;27;20426;-55
2022/10/13 02:12:13;;;;;;;2.10;1.40;;;;;;;14.82;100.00;96035.34;5132311;27;20433;-55
2022/10/13 02:14:44;;;;;;;0.60;0.53;;;;;;;14.55;100.00;96025.09;5132445;27;20432;-55
2022/10/13 02:17:15;;;;;;;0.90;0.70;;;;;;;14.55;100.00;96027.78;5132461;27;20478;-55
2022/10/13 02:19:45;;;;;;;1.63;0.50;;;;;;;14.33;100.00;96032.72;5132269;27;20440;-54
2022/10/13 02:22:15;;;;;;;3.50;0.63;;;;;;;14.35;100.00;96030.56;5132484;27;20807;-54
2022/10/13 02:24:44;;;;;;;0.70;0.70;;;;;;;14.44;100.00;96021.72;5131958;27;20992;-54
2022/10/13 02:27:13;;;;;;;1.03;1.03;;;;;;;14.27;100.00;96023.13;5132266;27;20950;-54
2022/10/13 02:29:52;;;;;;;2.53;1.03;;;;;;;13.71;100.00;95982.59;5132258;27;20429;-54
2022/10/13 02:32:22;;;;;;;0.67;0.67;;;;;;;14.03;100.00;96022.97;5131743;27;20431;-55
2022/10/13 02:34:51;;;;;;;0.70;0.70;;;;;;;14.22;100.00;96015.94;5132863;27;20441;-55
2022/10/13 02:37:20;;;;;;;0.90;0.80;;;;;;;14.02;100.00;96019.50;5136209;27;20483;-55
2022/10/13 02:39:48;;;;;;;1.03;1.03;;;;;;;13.48;100.00;96026.63;5135833;27;20445;-54
2022/10/13 02:42:17;;;;;;;0.73;0.70;;;;;;;13.80;100.00;96020.91;5136120;27;20456;-54
2022/10/13 02:44:48;;;;;;;3.53;1.67;;;;;;;13.14;100.00;96017.59;5135760;27;20429;-55
2022/10/13 02:47:16;;;;;;;1.53;1.43;;;;;;;13.14;100.00;96017.59;5135225;27;20426;-55
2022/10/13 02:49:46;;;;;;;1.47;0.50;;;;;;;13.72;100.00;96011.63;5135814;27;20425;-55
2022/10/13 02:52:14;;;;;;;0.60;0.50;;;;;;;13.79;100.00;95998.78;5135645;27;20433;-55
2022/10/13 02:54:42;;;;;;;0.60;0.50;;;;;;;13.94;100.00;96016.59;5134789;27;20425;-55
2022/10/13 02:57:11;;;;;;;1.00;0.90;;;;;;;13.75;100.00;96002.28;5135646;27;20477;-55
2022/10/13 02:59:39;;;;;;;0.90;0.90;;;;;;;13.08;100.00;96013.38;5135363;27;20425;-56
2022/10/13 03:02:07;;;;;;;0.87;0.87;;;;;;;13.01;100.00;96000.28;5134819;27;20437;-55
2022/10/13 03:04:35;;;;;;;0.50;0.40;;;;;;;13.29;100.00;95999.75;5135796;27;20441;-55
2022/10/13 03:07:06;;;;;;;1.00;0.90;;;;;;;13.29;100.00;96004.25;5135343;27;20433;-55
2022/10/13 03:09:34;;;;;;;0.50;0.50;;;;;;;13.36;100.00;96002.91;5135131;27;20437;-55
2022/10/13 03:12:03;;;;;;;1.70;1.60;;;;;;;13.64;100.00;95996.19;5135553;27;20440;-55
2022/10/13 03:14:31;;;;;;;0.87;0.50;;;;;;;13.95;100.00;95997.69;5135287;27;20433;-55
2022/10/13 03:17:00;;;;;;;0.40;0.30;;;;;;;14.04;100.00;95999.78;5135641;27;20472;-55
2022/10/13 03:19:29;;;;;;;0.70;0.60;;;;;;;13.88;100.00;96001.72;5135157;27;20433;-55
2022/10/13 03:21:57;;;;;;;0.67;0.67;;;;;;;13.96;100.00;96009.13;5134969;27;20442;-55
2022/10/13 03:24:27;;;;;;;0.50;0.40;;;;;;;13.77;100.00;96011.59;5135000;27;20461;-55
2022/10/13 03:26:55;;;;;;;1.37;0.70;;;;;;;13.66;100.00;96010.03;5135219;27;20438;-55
2022/10/13 03:29:24;;;;;;;1.10;1.10;;;;;;;13.76;100.00;96007.34;5134849;27;20441;-55
2022/10/13 03:31:52;;;;;;;1.90;0.57;;;;;;;13.89;100.00;96006.75;5135020;27;20818;-56
2022/10/13 03:34:20;;;;;;;0.50;0.30;;;;;;;13.65;100.00;96004.97;5134826;27;20448;-56
2022/10/13 03:36:49;;;;;;;0.40;0.30;;;;;;;13.09;100.00;96001.63;5134906;27;20477;-55
2022/10/13 03:39:17;;;;;;;3.90;0.90;;;;;;;12.65;100.00;96017.28;5134736;27;20867;-55
2022/10/13 03:41:46;;;;;;;0.53;0.53;;;;;;;12.23;100.00;96003.41;5134873;27;20432;-55
2022/10/13 03:44:15;;;;;;;0.97;0.97;;;;;;;12.74;100.00;96019.19;5134704;27;20508;-54
2022/10/13 03:46:44;;;;;;;5.53;1.17;;;;;;;12.95;100.00;95996.03;5134178;27;20444;-55
2022/10/13 03:49:12;;;;;;;1.87;1.00;;;;;;;12.87;100.00;96025.84;5134374;27;20429;-54
2022/10/13 03:51:41;;;;;;;1.20;1.10;;;;;;;12.74;100.00;96016.53;5134089;27;20444;-54
2022/10/13 03:54:11;;;;;;;0.80;0.80;;;;;;;13.28;100.00;96010.69;5134505;27;20437;-55
2022/10/13 03:56:41;;;;;;;0.57;0.43;;;;;;;13.58;100.00;96015.13;5134701;27;20476;-55
2022/10/13 03:59:15;;;;;;;0.40;0.27;;;;;;;13.60;100.00;96013.78;5134349;27;20421;-55
2022/10/13 04:01:43;;;;;;;1.17;1.13;;;;;;;13.04;100.00;96012.25;5134434;27;20820;-55
2022/10/13 04:04:12;;;;;;;0.70;0.70;;;;;;;12.92;100.00;96012.53;5134191;27;20517;-55
2022/10/13 04:06:40;;;;;;;0.57;0.40;;;;;;;12.96;100.00;95986.16;5134179;27;20917;-55
2022/10/13 04:09:09;;;;;;;1.30;1.10;;;;;;;12.94;100.00;96009.59;5134522;27;20418;-55
2022/10/13 04:11:37;;;;;;;0.50;0.30;;;;;;;12.96;100.00;96018.09;5133637;27;20444;-55
2022/10/13 04:14:06;;;;;;;1.07;1.07;;;;;;;13.31;100.00;96018.09;5134119;27;20426;-55
2022/10/13 04:16:36;;;;;;;2.93;1.23;;;;;;;13.15;100.00;96008.56;5133948;27;20469;-55
2022/10/13 04:19:05;;;;;;;0.70;0.70;;;;;;;13.01;100.00;96023.44;5134250;27;20445;-55
2022/10/13 04:21:35;;;;;;;0.80;0.80;;;;;;;13.11;100.00;96021.59;5134024;27;20434;-54
2022/10/13 04:24:04;;;;;;;0.60;0.40;;;;;;;13.14;100.00;96018.41;5133810;27;20863;-55
2022/10/13 04:26:35;;;;;;;1.00;1.00;;;;;;;13.29;100.00;96020.25;5133658;27;20444;-54
2022/10/13 04:29:05;;;;;;;0.50;0.30;;;;;;;13.20;100.00;96019.19;5133672;27;20432;-54
2022/10/13 04:31:35;;;;;;;0.70;0.60;;;;;;;13.09;100.00;96002.44;5133507;27;20434;-55
2022/10/13 04:34:03;;;;;;;0.70;0.70;;;;;;;13.23;100.00;96026.66;5133598;27;20430;-55
2022/10/13 04:36:31;;;;;;;1.20;0.60;;;;;;;12.60;100.00;96028.72;5133530;27;20469;-55
2022/10/13 04:39:00;;;;;;;2.20;0.70;;;;;;;12.95;100.00;96032.50;5133299;27;20425;-55
2022/10/13 04:41:28;;;;;;;1.80;1.07;;;;;;;13.05;100.00;96022.66;5133298;27;20933;-55
2022/10/13 04:43:57;;;;;;;2.00;0.60;;;;;;;13.20;100.00;96020.00;5133794;27;20425;-55
2022/10/13 04:46:27;;;;;;;0.50;0.30;;;;;;;13.21;100.00;96034.09;5133588;27;20460;-54
2022/10/13 04:48:57;;;;;;;0.60;0.60;;;;;;;13.29;100.00;96031.69;5132151;27;20425;-55
2022/10/13 04:51:26;;;;;;;0.50;0.50;;;;;;;12.64;100.00;96042.31;5132869;27;20952;-55
2022/10/13 04:53:55;;;;;;;2.53;0.80;;;;;;;12.94;100.00;96026.38;5133536;27;20425;-55
2022/10/13 04:56:25;;;;;;;0.50;0.50;;;;;;;13.14;100.00;96041.56;5132532;27;20429;-54
2022/10/13 04:58:53;;;;;;;0.50;0.50;;;;;;;13.31;100.00;96050.84;5132564;27;20435;-55
2022/10/13 05:01:23;;;;;;;0.83;0.83;;;;;;;13.00;100.00;95996.03;5133331;27;20440;-55
2022/10/13 05:03:52;;;;;;;2.97;2.63;;;;;;;13.25;100.00;96037.81;5132970;27;20433;-55
2022/10/13 05:06:24;;;;;;;0.87;0.87;;;;;;;12.92;100.00;96041.81;5133103;27;20425;-55
2022/10/13 05:08:52;;;;;;;2.60;0.80;;;;;;;13.08;100.00;96043.41;5132870;27;20960;-55
2022/10/13 05:11:21;;;;;;;1.00;1.00;;;;;;;12.72;100.00;96044.44;5132985;27;20437;-55
2022/10/13 05:13:50;;;;;;;0.50;0.50;;;;;;;12.16;100.00;96046.19;5132983;27;20964;-55
2022/10/13 05:16:22;;;;;;;1.63;0.70;;;;;;;11.95;100.00;96042.66;5133257;27;20516;-55
2022/10/13 05:18:54;;;;;;;1.80;1.07;;;;;;;12.77;100.00;96037.25;5133263;27;20483;-55
2022/10/13 05:21:26;;;;;;;1.53;1.30;;;;;;;12.90;100.00;96035.97;5132688;27;20426;-56
2022/10/13 05:23:57;;;;;;;0.70;0.60;;;;;;;13.10;100.00;96029.84;5132631;27;20477;-56
2022/10/13 05:26:27;;;;;;;0.50;0.43;;;;;;;13.32;100.00;96035.69;5131984;27;20457;-55
2022/10/13 05:28:56;;;;;;;1.90;1.40;;;;;;;13.38;100.00;96039.94;5132801;27;20826;-56
2022/10/13 05:31:26;;;;;;;0.73;0.70;;;;;;;13.46;100.00;96039.38;5133074;27;20437;-56
2022/10/13 05:33:55;;;;;;;3.07;2.80;;;;;;;12.63;100.00;96046.81;5132758;27;20440;-57
2022/10/13 05:36:28;;;;;;;2.73;2.37;;;;;;;12.48;100.00;96044.13;5132574;27;20925;-56
2022/10/13 05:38:59;;;;;;;2.90;2.80;;;;;;;12.89;100.00;96045.00;5131546;27;21010;-56
2022/10/13 05:41:29;;;;;;;8.03;1.73;;;;;;;12.84;100.00;96001.63;5132667;27;20902;-56
2022/10/13 05:44:01;;;;;;;4.13;2.10;;;;;;;13.07;100.00;96051.69;5132894;27;20513;-56
2022/10/13 05:46:29;;;;;;;3.87;2.00;;;;;;;12.20;100.00;95972.84;5132890;27;20820;-56
2022/10/13 05:48:58;;;;;;;2.93;0.93;;;;;;;13.52;100.00;96061.47;5132643;27;20444;-56
2022/10/13 05:51:32;;;;;;;1.63;1.53;;;;;;;13.72;100.00;96061.44;5132909;27;20425;-56
2022/10/13 05:54:05;;;;;;;2.23;1.40;;;;;;;12.69;100.00;96063.59;5132160;27;20429;-55
2022/10/13 05:56:37;;;;;;;1.67;1.47;;;;;;;11.88;100.00;96018.19;5132452;27;20429;-56
2022/10/13 05:59:10;;;;;;;0.70;0.70;;;;;;;11.90;100.00;96063.06;5132269;27;20461;-55
2022/10/13 06:01:40;;;;;;;2.83;0.63;;;;;;;11.96;100.00;96068.16;5131936;27;20437;-55
2022/10/13 06:04:11;;;;;;;1.30;1.20;;;;;;;12.10;100.00;96065.81;5132242;27;20448;-55
2022/10/13 06:06:41;;;;;;;1.07;1.07;;;;;;;12.46;100.00;96045.47;5132357;27;20948;-55
2022/10/13 06:09:10;;;;;;;2.60;1.07;;;;;;;12.61;100.00;96059.59;5133183;27;20932;-56
2022/10/13 06:11:38;;;;;;;1.07;0.97;;;;;;;12.32;100.00;95869.72;5135882;27;20440;-56
2022/10/13 06:14:07;;;;;;;1.00;1.00;;;;;;;13.38;100.00;96060.44;5135634;27;20426;-57
2022/10/13 06:16:36;;;;;;;0.67;0.67;;;;;;;14.08;100.00;96030.94;5135859;27;20795;-56
2022/10/13 06:19:05;;;;;;;3.43;1.23;;;;;;;15.02;94.11;96057.34;5136315;27;20497;-57
2022/10/13 06:21:35;;;;;;;0.77;0.77;;;;;;;15.54;88.99;96067.34;5135618;27;20449;-57
2022/10/13 06:24:05;;;;;;;0.70;0.70;;;;;;;15.93;85.26;96059.19;5136117;27;20481;-57
2022/10/13 06:26:33;;;;;;;0.40;0.40;;;;;;;16.17;82.56;96067.19;5136320;27;20905;-57
2022/10/13 06:29:02;;;;;;;0.90;0.90;;;;;;;15.61;83.69;96059.00;5135965;27;20429;-57
2022/10/13 06:31:30;;;;;;;1.10;0.70;;;;;;;15.46;82.77;96067.13;5136039;27;20540;-57
2022/10/13 06:33:59;;;;;;;0.50;0.50;;;;;;;15.08;85.54;96066.91;5136196;27;20434;-57
2022/10/13 06:36:27;;;;;;;0.80;0.80;;;;;;;15.11;85.49;96066.34;5136006;27;20430;-58
2022/10/13 06:38:56;;;;;;;0.80;0.80;;;;;;;14.25;87.74;95995.91;5135992;27;20499;-58
2022/10/13 06:41:26;;;;;;;0.77;0.77;;;;;;;14.57;90.05;96065.66;5135953;27;20424;-59
2022/10/13 06:43:54;;;;;;;1.63;0.97;;;;;;;14.24;91.52;96061.81;5135929;27;20433;-59
2022/10/13 06:46:22;;;;;;;3.30;1.03;;;;;;;14.78;90.63;96063.66;5135730;27;20424;-58
2022/10/13 06:48:51;;;;;;;1.00;1.00;;;;;;;15.62;86.25;96065.94;5135537;27;20437;-58
2022/10/13 06:51:19;;;;;;;1.17;1.17;;;;;;;15.67;83.50;96058.66;5135896;27;20421;-58
2022/10/13 06:53:48;;;;;;;0.93;0.93;;;;;;;16.00;82.75;96045.47;5135177;27;20441;-59
2022/10/13 06:56:16;;;;;;;1.90;0.53;;;;;;;16.57;81.20;96049.88;5135851;27;20790;-59
2022/10/13 06:58:47;;;;;;;2.27;0.93;;;;;;;16.98;77.83;96056.22;5135236;27;20469;-59
2022/10/13 07:01:15;;;;;;;0.90;0.90;;;;;;;16.83;77.83;96059.13;5135570;27;20426;-59
2022/10/13 07:03:43;;;;;;;1.87;0.97;;;;;;;16.32;76.97;96037.56;5135504;27;20432;-59
2022/10/13 07:06:12;;;;;;;0.90;0.90;;;;;;;16.54;76.30;96061.16;5135664;27;20455;-59
2022/10/13 07:08:40;;;;;;;3.23;0.87;;;;;;;16.91;75.29;96050.44;5134489;27;20425;-59
2022/10/13 07:11:11;;;;;;;0.87;0.87;;;;;;;16.63;73.63;96003.19;5135651;27;20445;-58
2022/10/13 07:13:44;;;;;;;1.17;0.97;;;;;;;16.90;75.04;96033.56;5135062;27;20825;-58
2022/10/13 07:16:16;;;;;;;2.27;0.60;;;;;;;17.06;73.44;96039.50;5135514;27;20524;-58
2022/10/13 07:18:44;;;;;;;1.00;0.97;;;;;;;17.08;71.50;96053.38;5135429;27;20896;-58
2022/10/13 07:21:12;;;;;;;0.50;0.47;;;;;;;17.25;71.68;96053.66;5134230;27;20930;-58
2022/10/13 07:23:40;;;;;;;0.40;0.30;;;;;;;16.66;71.62;96010.66;5134795;27;20484;-58
2022/10/13 07:26:10;;;;;;;0.90;0.90;;;;;;;16.08;73.44;96050.19;5134331;27;20941;-58
2022/10/13 07:28:39;;;;;;;1.23;1.23;;;;;;;16.15;73.85;96037.25;5135206;27;20422;-58
2022/10/13 07:31:10;;;;;;;1.90;0.70;;;;;;;15.95;73.80;95971.47;5134872;27;20418;-59
2022/10/13 07:33:41;;;;;;;1.57;1.10;;;;;;;15.93;74.59;96037.81;5133981;27;20506;-58
2022/10/13 07:36:10;;;;;;;1.67;1.57;;;;;;;16.10;74.41;96037.34;5134864;27;20427;-58
2022/10/13 07:38:38;;;;;;;1.03;0.40;;;;;;;16.59;73.55;96039.66;5134990;27;20470;-59
2022/10/13 07:41:08;;;;;;;0.70;0.70;;;;;;;17.26;72.52;96036.47;5134919;27;20434;-59
2022/10/13 07:43:37;;;;;;;1.33;1.23;;;;;;;17.89;70.06;96034.03;5134703;27;20430;-58
2022/10/13 07:46:06;;;;;;;3.10;1.27;;;;;;;17.67;69.14;96024.00;5134571;27;20897;-59
2022/10/13 07:48:35;;;;;;;0.70;0.40;;;;;;;17.49;69.50;96022.16;5134653;27;20419;-58
2022/10/13 07:51:07;;;;;;;1.77;1.63;;;;;;;17.96;66.11;96023.69;5133648;27;20452;-59
2022/10/13 07:53:36;;;;;;;1.07;0.40;;;;;;;18.21;65.45;96017.03;5134544;27;20434;-59
2022/10/13 07:56:07;;;;;;;0.67;0.67;;;;;;;17.40;64.65;96015.88;5134409;27;20426;-60
2022/10/13 07:58:37;;;;;;;1.43;1.33;;;;;;;17.24;64.11;96006.50;5133475;27;20484;-60
2022/10/13 08:01:06;;;;;;;0.53;0.47;;;;;;;17.58;63.25;96007.00;5136026;27;20414;-59
2022/10/13 08:03:34;;;;;;;1.00;1.00;;;;;;;17.90;61.79;95997.28;5136484;27;20430;-59
2022/10/13 08:06:06;;;;;;;3.90;0.93;;;;;;;17.53;61.15;95998.28;5134993;27;20427;-59
2022/10/13 08:08:35;;;;;;;0.50;0.40;;;;;;;18.11;61.35;95998.47;5134356;27;20439;-60
2022/10/13 08:11:06;;;;;;;9.93;1.23;;;;;;;18.23;60.02;96006.78;5134211;27;20415;-59
2022/10/13 08:13:34;;;;;;;3.77;1.77;;;;;;;19.16;59.61;96002.53;5134426;27;20455;-59
2022/10/13 08:16:03;;;;;;;0.53;0.50;;;;;;;19.28;59.00;96000.09;5134371;27;20434;-59
2022/10/13 08:18:31;;;;;;;0.67;0.67;;;;;;;19.68;56.65;95999.09;5133963;27;20459;-58
2022/10/13 08:21:01;;;;;;;0.40;0.30;;;;;;;19.92;56.51;95994.09;5134271;27;20450;-58
2022/10/13 08:23:51;;;;;;;0.50;0.40;;;;;;;20.25;54.37;95989.97;5133443;27;20478;-58
2022/10/13 08:26:22;;;;;;;1.20;1.17;;;;;;;19.53;52.99;95924.19;5133206;27;20808;-58
2022/10/13 08:28:51;;;;;;;1.30;1.20;;;;;;;20.59;51.98;95991.88;5133717;27;20432;-57
2022/10/13 08:31:39;;;;;;;1.70;1.53;;;;;;;20.26;51.40;95988.84;5133567;27;20439;-58
2022/10/13 08:34:08;;;;;;;0.80;0.80;;;;;;;20.48;50.87;95969.09;5132833;27;20997;-58
2022/10/13 08:36:37;;;;;;;6.07;1.30;;;;;;;21.77;49.88;95974.28;5133839;27;20435;-58
2022/10/13 08:39:07;;;;;;;0.53;0.43;;;;;;;21.75;50.98;95984.63;5132537;27;20467;-59
2022/10/13 08:41:39;;;;;;;0.97;0.67;;;;;;;20.67;50.51;95974.94;5133860;27;20430;-58
2022/10/13 08:44:16;;;;;;;1.93;1.83;;;;;;;20.62;51.54;95975.09;5133434;27;20801;-58
2022/10/13 08:47:11;;;;;;;0.70;0.50;;;;;;;21.10;49.86;95964.16;5132894;27;20438;-58
2022/10/13 08:49:41;;;;;;;1.23;0.87;;;;;;;20.69;51.61;95974.66;5133223;27;20435;-58
2022/10/13 08:52:17;;;;;;;2.10;0.90;;;;;;;20.74;52.66;95982.56;5133502;27;20430;-58
2022/10/13 08:54:47;;;;;;;1.13;1.03;;;;;;;21.17;51.65;95977.97;5132994;27;20429;-57
2022/10/13 08:57:16;;;;;;;0.50;0.30;;;;;;;21.13;52.15;95974.31;5133262;27;20536;-57
2022/10/13 08:59:45;;;;;;;0.60;0.60;;;;;;;20.81;51.86;95972.09;5133069;27;20481;-57
2022/10/13 09:02:15;;;;;;;0.50;0.40;;;;;;;20.79;52.91;95971.63;5132611;27;20430;-57
2022/10/13 09:04:49;;;;;;;1.53;1.30;;;;;;;20.10;51.35;95971.53;5132976;27;20918;-57
2022/10/13 09:07:21;;;;;;;2.70;1.00;;;;;;;19.97;51.80;95967.06;5132696;27;20441;-57
2022/10/13 09:09:52;;;;;;;1.50;1.40;;;;;;;20.26;51.69;95970.00;5133120;27;20928;-57
2022/10/13 09:12:23;;;;;;;0.40;0.27;;;;;;;20.53;51.23;95976.22;5132972;27;20928;-57
2022/10/13 09:15:00;;;;;;;1.37;1.27;;;;;;;20.25;50.72;95948.78;5132947;27;20427;-57
2022/10/13 09:17:30;;;;;;;1.00;0.90;;;;;;;20.68;48.99;95962.28;5132860;27;20433;-57
2022/10/13 09:20:00;;;;;;;0.60;0.40;;;;;;;20.79;48.04;95785.72;5133111;27;20473;-59
2022/10/13 09:22:32;;;;;;;0.90;0.50;;;;;;;22.16;47.02;95940.78;5133054;27;20497;-59
2022/10/13 09:25:20;;;;;;;2.43;0.30;;;;;;;22.12;47.01;95949.53;5132544;27;20473;-59
2022/10/13 09:27:50;;;;;;;1.27;0.37;;;;;;;21.87;46.99;95796.63;5132707;27;20907;-59
2022/10/13 09:30:30;;;;;;;4.90;0.97;;;;;;;23.49;44.62;95938.69;5132823;27;20438;-59
2022/10/13 09:33:20;;;;;;;0.60;0.37;;;;;;;22.98;44.32;95945.41;5132630;27;20418;-58
2022/10/13 09:36:06;;;;;;;0.40;0.30;;;;;;;23.32;44.50;95935.03;5132931;27;20442;-57
2022/10/13 09:38:35;;;;;;;0.50;0.40;;;;;;;22.86;45.11;95932.63;5132234;27;20446;-57
2022/10/13 09:41:12;;;;;;;0.40;0.30;;;;;;;22.81;45.57;95922.03;5132387;27;20494;-57
2022/10/13 09:43:42;;;;;;;0.57;0.57;;;;;;;22.69;45.08;95927.38;5132087;27;20438;-56
2022/10/13 09:46:21;;;;;;;2.10;0.50;;;;;;;23.25;45.17;95918.56;5132926;27;20450;-57
2022/10/13 09:48:52;;;;;;;2.30;0.40;;;;;;;24.26;42.07;95906.00;5132484;27;20457;-57
2022/10/13 09:51:32;;;;;;;0.70;0.50;;;;;;;23.86;42.22;95868.00;5132599;27;20448;-57
2022/10/13 09:54:01;;;;;;;1.27;1.17;;;;;;;23.94;42.23;95894.16;5132801;27;20426;-56
2022/10/13 09:56:38;;;;;;;1.10;0.40;;;;;;;24.93;41.38;95893.59;5132529;27;20434;-56
2022/10/13 09:59:18;;;;;;;0.60;0.60;;;;;;;24.37;40.31;95898.19;5132434;27;20426;-55
2022/10/13 10:01:48;;;;;;;0.57;0.57;;;;;;;24.35;39.24;95889.63;5132339;27;20952;-56
2022/10/13 10:04:22;;;;;;;0.40;0.33;;;;;;;24.85;39.65;95884.50;5132454;27;20419;-56
2022/10/13 10:06:51;;;;;;;0.40;0.30;;;;;;;26.68;38.22;95885.44;5132031;27;20456;-55
2022/10/13 10:09:36;;;;;;;0.60;0.57;;;;;;;26.21;36.57;95852.22;5131957;27;20433;-55
2022/10/13 10:12:07;;;;;;;0.63;0.60;;;;;;;27.27;36.30;95865.19;5132140;27;20815;-54
2022/10/13 10:14:38;;;;;;;0.70;0.60;;;;;;;26.88;35.54;95856.31;5132065;27;20426;-54
2022/10/13 10:17:17;;;;;;;1.03;0.80;;;;;;;27.33;36.91;95841.94;5132323;27;20431;-55
2022/10/13 10:19:56;;;;;;;3.17;1.37;;;;;;;28.57;35.06;95855.50;5132129;27;20982;-55
2022/10/13 10:22:35;;;;;;;0.50;0.50;;;;;;;27.59;33.69;95744.78;5131263;27;20435;-54
2022/10/13 10:25:16;;;;;;;0.73;0.57;;;;;;;29.33;35.47;95834.94;5131853;27;20473;-54
2022/10/13 10:27:53;;;;;;;0.53;0.53;;;;;;;29.34;33.71;95828.34;5132039;27;20445;-54
2022/10/13 10:30:22;;;;;;;0.40;0.40;;;;;;;26.64;34.01;95675.16;5131901;27;20431;-55
2022/10/13 10:32:56;;;;;;;1.10;1.10;;;;;;;26.42;35.74;95722.16;5131646;27;20800;-55
2022/10/13 10:35:36;;;;;;;4.57;0.97;;;;;;;25.83;36.92;95810.22;5131601;27;20442;-55
2022/10/13 10:38:19;;;;;;;0.57;0.40;;;;;;;26.06;35.97;95828.56;5131770;27;20430;-56
2022/10/13 10:40:55;;;;;;;0.53;0.53;;;;;;;25.30;36.91;95826.38;5131529;27;20480;-55
2022/10/13 10:43:37;;;;;;;0.30;0.20;;;;;;;25.53;35.02;95824.63;5131738;27;20427;-55
2022/10/13 10:46:15;;;;;;;0.40;0.30;;;;;;;26.19;35.59;95738.41;5131979;27;20935;-56
2022/10/13 10:48:45;;;;;;;0.40;0.40;;;;;;;25.63;33.30;95805.06;5132149;27;20439;-57
2022/10/13 10:51:14;;;;;;;1.10;0.80;;;;;;;25.46;35.46;95813.59;5131250;27;20426;-57
2022/10/13 10:53:55;;;;;;;1.00;0.30;;;;;;;25.71;33.87;95804.09;5131681;27;20913;-57
2022/10/13 10:56:30;;;;;;;0.40;0.30;;;;;;;25.24;34.94;95798.72;5133200;27;20430;-58
2022/10/13 10:59:13;;;;;;;0.50;0.50;;;;;;;25.87;34.83;95785.84;5135492;27;20946;-59
2022/10/13 11:01:47;;;;;;;4.10;0.30;;;;;;;27.25;34.18;95783.13;5135479;27;20957;-59
2022/10/13 11:04:35;;;;;;;0.50;0.40;;;;;;;26.75;33.32;95775.97;5135450;27;20933;-57
2022/10/13 11:07:04;;;;;;;0.47;0.40;;;;;;;26.87;32.12;95779.34;5134740;27;20810;-60
2022/10/13 11:10:16;;;;;;;0.50;0.40;;;;;;;28.07;32.69;95772.31;5135272;27;20799;-60
2022/10/13 11:13:21;;;;;;;0.50;0.50;;;;;;;27.79;32.17;95764.50;5118181;27;20469;-60
2022/10/13 11:15:51;;;;;;;0.40;0.40;;;;;;;28.68;32.52;95763.72;5137435;27;20419;-61
2022/10/13 11:18:58;;;;;;;0.50;0.40;;;;;;;28.07;34.08;95755.97;5144890;27;20427;-59
2022/10/13 11:22:04;;;;;;;0.47;0.30;;;;;;;27.54;33.18;95736.13;5148967;27;21013;-60
2022/10/13 11:24:47;;;;;;;0.30;0.20;;;;;;;27.31;34.05;95760.66;5151755;27;20481;-60
2022/10/13 11:27:24;;;;;;;0.53;0.53;;;;;;;26.58;33.31;95739.19;5138657;27;20440;-60
2022/10/13 11:29:56;;;;;;;0.40;0.30;;;;;;;26.39;33.80;95753.56;5143466;27;20422;-59
2022/10/13 11:32:55;;;;;;;0.40;0.30;;;;;;;26.31;33.55;95738.25;5139464;27;20503;-58
2022/10/13 11:35:28;;;;;;;2.50;0.80;;;;;;;26.14;34.38;95738.72;5138094;27;20498;-59
2022/10/13 11:38:16;;;;;;;1.27;1.20;;;;;;;25.21;34.35;95737.78;5140422;27;20423;-58
2022/10/13 11:41:04;;;;;;;0.70;0.70;;;;;;;24.51;33.83;95744.94;5144117;27;20470;-61
2022/10/13 11:43:46;;;;;;;0.60;0.60;;;;;;;25.04;35.57;95746.31;5138627;27;20433;-61
2022/10/13 11:46:25;;;;;;;0.57;0.50;;;;;;;25.65;35.47;95740.38;5139505;27;20437;-60
2022/10/13 11:49:18;;;;;;;0.63;0.40;;;;;;;25.03;34.21;95736.59;5137439;27;20426;-60
2022/10/13 11:52:11;;;;;;;0.50;0.40;;;;;;;24.23;34.81;95722.50;5137291;27;20431;-62
2022/10/13 11:54:48;;;;;;;0.50;0.30;;;;;;;24.34;33.82;95725.47;5148892;27;20443;-61